Timeline UpdatesTrip UpdatesNews PostsPvt PostsTravel TipsAdmin PostsConv PostsFollowed PostsChat RequestsBlog PostsPNR Posts

Disclaimer
Search
 
 
Tue Sep 2, 2014 09:57:40 ISTHomeTrainsΣChainsAtlasPNRForumGalleryNewsFAQTripsMembersLoginFeedback
No Recent News for this Train
Other Trains in the News **new
Latest...
Cancelled on 22/5/14 due to rake shortage
Mon May 19, 2014 (06:13PM)
⇐ Return Journey: Train# 13007

13008/Udyan Abha Toofan Express

Time-Table HAS CHANGED.
Today (12:27AM)
Change Departure Station:
Change Arrival Station:
Post a Train Travel TipPost a Train Travel Tip **new
Post a Comment/Question/Picture/VideoPost a Comment/Question/Picture/Video
Inaugural Run
Wed Jan 01, 1930
Pantry/Catering
✕ NO Pantry Car
✕ NO Catering
Loco/Rake Reversals
AGC/Agra Cantt. (6);
RSA - Rake Sharing
Rake/Coach Composition
LOCO-HCPV-HCPV-SLR-GEN-GEN-S1-S2-S3-S4-S5-B1-GEN-GEN-SLR.;;Entry# 252065 Author: mohantoursandtravels ;;Loco Reversal at Agra Cannt(AGC)
Loco
SGNR-NDLS: TKD WDM-3A NDLS-HWH: HWH WAP-4
News    PNR    Forum    Time-Table    Availability    Fare Chart    Map    Arr/Dep History    Trips    Gallery    ΣChains    X/O    Timeline    
Travel Time: 20h 18m    41 halts    Distance: 835 km    Avg Speed: 41 km/hr
Type: Mail/Express
Zone: ER/Eastern
Departs @ 21:00
Platform# 3
SMTWTFS
Shri Ganganagar/SGNR 
Arrives @ 17:18 +1 night
Platform# ???
SMTWTFS
Rura/RURA 

41 halts. 130 intermediate Stations between Shri Ganganagar and Rura

Show ALL intermediate Stations  Show Old Time-Table

#CodeStation NameX/OArrivesAvgDepartsAvgHaltPFDay#KmSpeedElevZoneAddress
1SGNR»Shri Ganganagar»  -21:00-310.078178mNWRSri Ganganagar, Rajasthan
2ABSAbohar  21:41-21:43-2m--153.068186mNRAbohar, Punjab
3MOTMalout (1)  22:09-22:11-2m1182.661194mNRMalaut, Punjab
4GDBGiddarbaha  22:27-22:29-2m--198.71200mNRGiddarbaha, Punjab
5BTIBathinda Junction (6)  23:10 23:10-00:05 00:05-55m52126.6-2208mNRBathinda, Punjab
6MAURMaur  00:32-00:34-2m--2162.170220mNRMaur Mandi, Punjab
7MSZMansa  00:50-00:52-2m--2180.854222mNRMansa, Punjab
8BLZBudhlada  01:10-01:12-2m--2196.949223mNRBudhlada, Punjab
9JHLJakhal Junction  01:50 01:48-01:55 01:53-5m--2226.573225mNRJakhal, Haryana
10TUNTohana (2)  02:06 02:03-02:08 02:05-2m--2238.773232mNRTohana, Haryana
11NRWNarwana Junction (4)  02:28 02:26-02:30 02:28-2m--2264.270235mNRWay to Narwana, Haryana
12UCAUchanaX  02:43 02:41-02:45 02:43-2m--2279.466225mNRDistrict Jind, Haryana
13JINDJind Junction (3)  03:05 03:00-03:10 03:05-5m--2298.173222mNR126102., Haryana
14JNAJulana  03:31 03:26-03:33 03:28-2m--2323.870226mNRJulana, Haryana
15ROKRohtak Junction (3)  04:03 03:55-04:07 04:00-4 5m--2355.284220mNRRohtak, Haryana
16SPZSampla  04:24 04:16-04:26 04:18-2m--2377.572222mNRSampla, Haryana
17BGZBahadurgarh  04:46 04:33-04:48 04:35-2m--2395.558220mNRBahadurgarh, Haryana
18NNONangloi  05:06 04:48-05:08 04:50-2m22407.912219mNRJJ Colony No 1, Delhi NCT
19SSBShakur BastiX  05:38 05:28-05:40 05:30-2m--2415.426216mNRPitampura, Delhi NCT
20DKZDelhi KishanGanj (2)  05:56 05:46-05:58 05:48-2m--2422.47220mNRSarai Rohilla, Delhi NCT
21NDLSNew Delhi (16)  06:30 06:20-07:00-30 40m52426.227215mNRNew Delhi, Delhi NCT
22TKDTuglakabad (4)XO  07:45 07:38-07:47 07:40-2m--2443.329213mNRNear Tughlakabad Metro Station, Delhi NCT
23FDBFaridabad (4)X  08:13 08:03-08:15 08:05-2m32454.444206mNRold Faridabad, Haryana
24BVHBallabgarh (5)  08:28 08:16-08:30 08:18-2m22462.535203mNRFaridabad, Haryana
25PWLPalwal (8)X  08:54-08:56-2m--2483.785200mNRPalwal, Haryana
26KSVKosi Kalan (3)X  09:26-09:28-2m22526.156189mNCRKosi Kalan, Uttar Pradesh
27CHJChata (4)XO  09:39-09:41-2m--2536.429 NCRChhata, Uttar Pradesh
28MTJMathura Junction (10)XO  10:45-10:50-5m12567.653179mNCRMathura, Uttar Pradesh
29RKMRaja Ki Mandi (4)  11:46-11:48-2m22617.211170mNCRAgra, Uttar Pradesh
30AGCAgra Cantt. (6)12:10-12:40 12:30-30 20m42621.37174mNCRAgra, Uttar Pradesh
31IDHIdgah Agra Junction (3)  12:48-12:50-2m--2623.511168mNCRAgra, Uttar Pradesh
32AFAgra Fort (3)  13:02-13:07-5m12625.626170mNCRRakabganj, Uttar Pradesh
33TDLTundla Junction (5)  13:55 14:00-14:05 14:10-10m--2648.555167mNCRDistt.Firozabad, Uttar Pradesh
34FZDFirozabad (4)X  14:24 14:28-14:26 14:30-2m22665.160164mNCRFirozabad, Uttar Pradesh
35SKBShikohabad Junction (4)X  14:45 14:50-14:47 14:52-2m22685.0150166mNCRDistrict Firozabad, Uttar Pradesh
36BDNBhadan (2)X  15:00-15:02-2m--2704.978160mNCRFirozabad, Uttar Pradesh
37JGRJaswantnagar (2)X  15:17-15:19-2m--2724.437154mNCRJaswantnagar, Uttar Pradesh
38ETWEtawah (5)  15:38 15:45-15:40 15:47-2m32740.379154mNCRDistt. Etawah, Uttar Pradesh
39BNTBharthana (3)  15:54 16:02-15:56 16:04-2m--2760.269147mNCRBharthana, Uttar Pradesh
40ULDAchalda (3)X  16:13 16:21-16:15 16:23-2m--2779.867147mNCRDist. Auraiya(05688-1072), Uttar Pradesh
41PHDPhaphund (4)X  16:27 16:38-16:29 16:40-2m--2796.559146mNCRdist. Auraiya, Uttar Pradesh
42JJKJhinjhak (3)  16:43 17:00-16:45 17:02-2m22816.371140mNCRAuraiya, Uttar Pradesh
43RURA•Rura (4)•X  17:00 17:18-17:02 17:20-2m--2835.498137mNCRJhinjhak, Uttar Pradesh
44PNKPanki (3)X  17:40-17:42-2m--2868.242129mNCRKANPUR-208 020, Uttar Pradesh
45GOYGovindpuri Junction (2)  17:53-17:55-2m22875.86129mNCRKANPUR-208 006, Uttar Pradesh
46CNBKanpur Central (10)O  18:25 18:30-18:40 18:45-15m--2879.673128mNCRKANPUR-208 001, Uttar Pradesh
47BKOBindki RoadO  19:28 19:23-19:30 19:25-2m--2925.967124mNCRFatehpur, Uttar Pradesh
48FTPFatehpur (3)  19:58 19:53-20:00 19:55-2m--2957.290120mNCRFatehpur, Uttar Pradesh
49KGAKhaga (3)  20:23 20:18-20:25 20:20-2m--2991.971114mNCRFatehpur, Uttar Pradesh
50SROSirathu (2)  20:44 20:41-20:46 20:43-2m121016.767109mNCRSirathu, Uttar Pradesh
51BREBharwariO  21:03 21:01-21:05 21:03-2m--21036.936108mNCRBharwari, Uttar Pradesh
52ALDAllahabad Junction (10)XO  22:05-22:15-10m621073.990100mNCRAllahabad 211003, Uttar Pradesh
53BDLVindhyachal (3)XO  23:11 23:10-23:13 23:12-2m--21156.22788mNCRMirzapur, Uttar Pradesh
54MZPMirzapur (3)O  23:33 23:28-23:35 23:30-2m221163.57888mNCRMirzapur, Uttar Pradesh
55CARChunar Junction (5)  00:01 23:54-00:02 23:56-1 2m321194.82885mNCRChunar Junction, Uttar Pradesh
56MGSMughal Sarai Junction (8)X  01:05-01:20 01:15-15 10m131226.76583mECRMughalsarai 232101, Uttar Pradesh
57ZNAZamania (2)X  01:56-01:58-2m--31270.96777mECRGhazipur, Uttar Pradesh
58DLNDildarnagar Junction (2)  02:10-02:12-2m--31284.48072mECRDildarnagar, Uttar Pradesh
59BXRBuxar (3)X  02:39-02:44-5m--31320.66167mECRBuxar, Bihar
60DUREDumraon (3)X  03:00-03:02-2m--31336.98070mECRDumraon, Bihar
61RPRRaghunathpur (4)  03:14-03:16-2m--31352.96669mECRRaghunathpur, Bihar
62BYNBanahi (2)  03:24-03:26-2m--31361.75167mECRBanahi, Bihar
63BEABihiya (3)X  03:33-03:35-2m--31367.77167mECRBehea, Bihar
64ARAAra Junction (3)X  03:53-03:57-4m--31389.17463mECRarrah( 06182-233411), Bihar
65KUAKulharia (2)  04:05-04:07-2m--31399.03161mECRChandi Sahar Rd, Bihar
66KWRKoelwar (2)O  04:14-04:16-2m--31402.55865mECRNational Highway 30, Bihar
67BTABihta (2)  04:25-04:27-2m--31411.34262mECRDistt: Patna, Bihar
68SDESadisopur (2)  04:33-04:35-2m--31415.56164mECRSadisopur, Bihar
69NEONeora (2)XO  04:42-04:44-2m--31422.6561mECRNational Highway 98, Bihar
70DNRDanapur (5)X  06:00-06:10-10m--31428.63858mECRKhagaul, Bihar
71PNBEPatna Junction (10)  06:25-06:35-10m131438.04157mECRPatna 800001, Bihar
72GZHGulzarbagh (3)X  06:45-06:47-2m--31444.82655mECRPatna, Bihar
73PNCPatna Saheb (3)  06:54-06:56-2m--31447.96159mECRPatna, Bihar
74FUTFatwa (6)  07:08-07:10-2m--31460.14653mECRPatna, Bihar
75KOOKhusropur (2)  07:21-07:23-2m--31468.66252mECRPatna, Bihar
76BKPBakhtiyarpur Junction (5)X  07:37-07:39-2m--31483.113651mECRPatna, Bihar
77ATLAthmal Gola (2)  07:43-07:45-2m--31492.21852mECRPatna, Bihar
78BARHBarh (3)  08:16-08:18-2m--31501.46949mECRBarh, Bihar
79PHKPunarakh (2)X  08:27-08:29-2m--31511.86251mECRPunarakh, Bihar
80MORMor (2)X  08:37-08:39-2m--31520.04346mECRMor, Bihar
81MKAMokama Junction (4)X  08:49-08:53-4m--31527.37248mECRPatna, Bihar
82HTZHathidah Junction (2)  09:00-09:02-2m131535.76350mECRMusahari, Bihar
83BRYABarhiya (3)  09:11-09:13-2m--31545.05147mECRBarahiya, Bihar
84DMRXDumri Halt (1)  09:18-09:20-2m131549.34549mECRNational Highway 80, Bihar
85MKBMankathaX  09:27-09:29-2m--31554.53047mECRNational Highway 80, Bihar
86LKRLuckeesarai Junction (2)XO  09:40-09:42-2m--31560.1852mECRLakhisarai, Bihar
87KIULKiul Junction (5)X  09:52-09:56-4m--31561.53853mECRDist. Lakhisarai, Bihar
88BSQPBansipur  10:03-10:05-2m--31565.92553mECRKiul, Bihar
89MNPMananpur (2)  10:11-10:13-2m--31568.48257mECRState Highway 18, Bihar
90JMUJamui (3)O  10:28-10:30-2m--31588.83081mECRState Highway 72, Bihar
91GHRGidhaur (2)  10:59-11:01-2m--31603.313106mECRState Highway 18, Bihar
92JAJJhajha (4)  11:52-11:57-5m--31614.875143mECRJhajha, Bihar
93STLSimultala (2)X  12:12-12:14-2m--31633.569247mERSimultala, Bihar
94JSMEJasidih Junction (5)X  12:36-12:41-5m--31658.970271mERJasidih, Jharkhand
95MDPMadhupur Junction (4)X  13:06-13:10-4m331687.981254mER06432-224478, Jharkhand
96VDSVidyasagar (2)  13:28-13:30-2m--31712.167250mERJamtara, Jharkhand
97JMTJamtara (2)X  13:46-13:48-2m231730.054201mERJamtara, Jharkhand
98CRJChittaranjan (3)X  14:04-14:06-2m231744.358182mERMihijam, Jharkhand
99STNSitarampur Junction (5)X  14:23-14:25-2m--31760.618139mERG T Rd Before Asansol, West Bengal
100ASNAsansol Junction (7)X  14:55-15:10-15m--31769.472113mERDist - bardhaman, West Bengal
101RNGRaniGanj (4)X  15:25-15:27-2m--31787.53692mERRaniganj, West Bengal
102UDLAndal Junction (6)X  15:39-15:41-2m--31794.87386mERAndal, West Bengal
103DGRDurgapur (5)X  15:55-15:57-2m--31811.99471mERDurgapur, West Bengal
104PANPanagarh (4)X  16:07-16:09-2m--31827.55570mERKaksa, West Bengal
105BWNBarddhaman Junction (8)X  17:01-17:06-5m--31875.45134mERDist - Barddhaman, West Bengal
106BDCBandel Junction (7)X  18:20 18:25-18:25 18:30-5m--31942.73914mERdist - HOOGHLY, West Bengal
107HWHKolkata Howrah Junction (23)  19:20 19:30--731982.1-7510mERHowrah 711101, West Bengal
108PULRampura Phul (1) new halt!!  00:24-00:26-2m--4159.061220mNRRampura Phul, Punjab
109BNNBarnala (1) new halt!!  00:58-01:00-2m--4191.361233mNRBarnala, Punjab
110DUIDhuri Junction (4) new halt!!X  01:30-01:40-10m--4222.077248mNRDhuri, Punjab
111NBANabha (1) new halt!!  02:01-02:03-2m--4248.978250mNRNabha, Punjab
112PTAPatiala (4) new halt!!  02:23-02:25-2m--4274.833256mNRPatiala, Punjab
113RPJRajpura Junction (3) new halt!!X  03:10-03:13-3m--4299.677272mNRNH-1, Punjab
114UBCAmbala City (3) new halt!!X  03:29-03:31-2m--4320.124273mNRNH-1, Haryana
115UMBAmbala Cantt. Junction (7) new halt!!XO  03:50-04:22-32m--4327.6112278mNRAmbala 133001, Haryana
116DHPRDappar (2) new halt!!O  04:40-04:42-2m--4361.124299mNRNational Highway 22, Punjab
117CDGChandigarh Junction (5) new halt!!  05:10-05:20-10m--4372.269334mNRDarua, Chandigarh
118CNDMChandi Mandir (1) new halt!!  05:28-05:30-2m--4381.537381mNRPanchkula, Chandigarh
119KLKKalka (7) new halt!!  05:55----4397.0-658mNRKalka-Shimla Highway, Haryana
Scroll to Top
Scroll to Bottom